sensor_id;sensor_type;location;lat;lon;timestamp;P1;durP1;ratioP1;P2;durP2;ratioP2
15858;SDS011;8029;52.202;7.308;2022-10-04T00:00:11;1.52;;;1.30;;
15858;SDS011;8029;52.202;7.308;2022-10-04T00:02:37;1.13;;;1.02;;
15858;SDS011;8029;52.202;7.308;2022-10-04T00:05:06;1.80;;;1.55;;
15858;SDS011;8029;52.202;7.308;2022-10-04T00:07:33;3.28;;;2.03;;
15858;SDS011;8029;52.202;7.308;2022-10-04T00:10:06;1.83;;;1.40;;
15858;SDS011;8029;52.202;7.308;2022-10-04T00:12:40;1.83;;;1.42;;
15858;SDS011;8029;52.202;7.308;2022-10-04T00:15:18;1.95;;;1.40;;
15858;SDS011;8029;52.202;7.308;2022-10-04T00:17:56;2.90;;;1.67;;
15858;SDS011;8029;52.202;7.308;2022-10-04T00:41:34;2.38;;;1.48;;
15858;SDS011;8029;52.202;7.308;2022-10-04T00:44:02;1.27;;;1.13;;
15858;SDS011;8029;52.202;7.308;2022-10-04T00:46:29;2.55;;;1.90;;
15858;SDS011;8029;52.202;7.308;2022-10-04T00:48:59;1.60;;;1.50;;
15858;SDS011;8029;52.202;7.308;2022-10-04T00:51:28;1.67;;;1.55;;
15858;SDS011;8029;52.202;7.308;2022-10-04T01:01:25;1.67;;;1.52;;
15858;SDS011;8029;52.202;7.308;2022-10-04T01:03:51;2.35;;;1.42;;
15858;SDS011;8029;52.202;7.308;2022-10-04T01:06:18;1.70;;;1.33;;
15858;SDS011;8029;52.202;7.308;2022-10-04T01:08:55;1.88;;;1.75;;
15858;SDS011;8029;52.202;7.308;2022-10-04T01:11:29;1.67;;;1.58;;
15858;SDS011;8029;52.202;7.308;2022-10-04T01:13:57;2.13;;;1.65;;
15858;SDS011;8029;52.202;7.308;2022-10-04T01:16:25;5.72;;;2.20;;
15858;SDS011;8029;52.202;7.308;2022-10-04T01:18:52;5.75;;;2.00;;
15858;SDS011;8029;52.202;7.308;2022-10-04T01:23:48;1.63;;;1.45;;
15858;SDS011;8029;52.202;7.308;2022-10-04T01:31:39;1.92;;;1.55;;
15858;SDS011;8029;52.202;7.308;2022-10-04T01:34:06;3.13;;;1.77;;
15858;SDS011;8029;52.202;7.308;2022-10-04T01:36:33;3.40;;;1.83;;
15858;SDS011;8029;52.202;7.308;2022-10-04T01:39:01;2.47;;;1.95;;
15858;SDS011;8029;52.202;7.308;2022-10-04T01:41:29;2.17;;;1.60;;
15858;SDS011;8029;52.202;7.308;2022-10-04T01:44:00;1.83;;;1.65;;
15858;SDS011;8029;52.202;7.308;2022-10-04T01:48:57;2.28;;;1.70;;
15858;SDS011;8029;52.202;7.308;2022-10-04T01:51:26;7.50;;;2.25;;
15858;SDS011;8029;52.202;7.308;2022-10-04T01:53:59;1.45;;;1.35;;
15858;SDS011;8029;52.202;7.308;2022-10-04T01:57:13;2.42;;;1.92;;
15858;SDS011;8029;52.202;7.308;2022-10-04T01:59:14;5.82;;;3.03;;
15858;SDS011;8029;52.202;7.308;2022-10-04T02:01:52;1.80;;;1.65;;
15858;SDS011;8029;52.202;7.308;2022-10-04T02:04:20;2.45;;;2.00;;
15858;SDS011;8029;52.202;7.308;2022-10-04T02:06:47;3.55;;;2.10;;
15858;SDS011;8029;52.202;7.308;2022-10-04T02:09:17;4.57;;;2.08;;
15858;SDS011;8029;52.202;7.308;2022-10-04T02:11:44;1.65;;;1.48;;
15858;SDS011;8029;52.202;7.308;2022-10-04T02:14:16;1.48;;;1.38;;
15858;SDS011;8029;52.202;7.308;2022-10-04T02:16:44;3.22;;;1.83;;
15858;SDS011;8029;52.202;7.308;2022-10-04T02:19:11;1.95;;;1.55;;
15858;SDS011;8029;52.202;7.308;2022-10-04T02:21:40;1.70;;;1.60;;
15858;SDS011;8029;52.202;7.308;2022-10-04T02:24:06;2.40;;;2.20;;
15858;SDS011;8029;52.202;7.308;2022-10-04T02:26:33;1.88;;;1.77;;
15858;SDS011;8029;52.202;7.308;2022-10-04T02:28:59;2.28;;;1.88;;
15858;SDS011;8029;52.202;7.308;2022-10-04T02:31:26;4.82;;;1.92;;
15858;SDS011;8029;52.202;7.308;2022-10-04T02:34:11;3.85;;;1.83;;
15858;SDS011;8029;52.202;7.308;2022-10-04T02:36:38;2.55;;;1.90;;
15858;SDS011;8029;52.202;7.308;2022-10-04T02:39:14;3.15;;;1.85;;
15858;SDS011;8029;52.202;7.308;2022-10-04T02:41:51;3.78;;;2.20;;
15858;SDS011;8029;52.202;7.308;2022-10-04T02:44:30;2.38;;;2.17;;
15858;SDS011;8029;52.202;7.308;2022-10-04T02:49:29;1.92;;;1.83;;
15858;SDS011;8029;52.202;7.308;2022-10-04T02:54:38;1.60;;;1.50;;
15858;SDS011;8029;52.202;7.308;2022-10-04T02:57:20;2.22;;;2.00;;
15858;SDS011;8029;52.202;7.308;2022-10-04T02:59:46;2.17;;;1.95;;
15858;SDS011;8029;52.202;7.308;2022-10-04T03:02:26;2.03;;;1.88;;
15858;SDS011;8029;52.202;7.308;2022-10-04T03:04:55;1.60;;;1.50;;
15858;SDS011;8029;52.202;7.308;2022-10-04T03:07:23;1.95;;;1.85;;
15858;SDS011;8029;52.202;7.308;2022-10-04T03:09:50;8.20;;;2.17;;
15858;SDS011;8029;52.202;7.308;2022-10-04T03:12:17;1.17;;;1.13;;
15858;SDS011;8029;52.202;7.308;2022-10-04T03:14:44;4.00;;;2.20;;
15858;SDS011;8029;52.202;7.308;2022-10-04T03:17:10;2.20;;;1.75;;
15858;SDS011;8029;52.202;7.308;2022-10-04T03:19:36;2.05;;;1.55;;
15858;SDS011;8029;52.202;7.308;2022-10-04T03:22:09;2.95;;;2.05;;
15858;SDS011;8029;52.202;7.308;2022-10-04T03:24:36;2.45;;;1.77;;
15858;SDS011;8029;52.202;7.308;2022-10-04T03:27:04;1.80;;;1.70;;
15858;SDS011;8029;52.202;7.308;2022-10-04T03:29:31;2.20;;;2.00;;
15858;SDS011;8029;52.202;7.308;2022-10-04T03:31:59;2.08;;;1.90;;
15858;SDS011;8029;52.202;7.308;2022-10-04T03:34:39;2.15;;;1.83;;
15858;SDS011;8029;52.202;7.308;2022-10-04T03:37:06;2.70;;;2.30;;
15858;SDS011;8029;52.202;7.308;2022-10-04T03:39:36;2.30;;;1.90;;
15858;SDS011;8029;52.202;7.308;2022-10-04T03:42:03;2.58;;;1.92;;
15858;SDS011;8029;52.202;7.308;2022-10-04T03:44:32;2.30;;;2.10;;
15858;SDS011;8029;52.202;7.308;2022-10-04T03:46:58;4.28;;;2.03;;
15858;SDS011;8029;52.202;7.308;2022-10-04T03:49:29;6.53;;;2.15;;
15858;SDS011;8029;52.202;7.308;2022-10-04T03:51:56;3.67;;;2.70;;
15858;SDS011;8029;52.202;7.308;2022-10-04T03:54:22;2.15;;;1.83;;
15858;SDS011;8029;52.202;7.308;2022-10-04T03:56:51;1.70;;;1.60;;
15858;SDS011;8029;52.202;7.308;2022-10-04T03:59:22;1.60;;;1.50;;
15858;SDS011;8029;52.202;7.308;2022-10-04T04:02:03;2.08;;;1.88;;
15858;SDS011;8029;52.202;7.308;2022-10-04T04:07:10;2.80;;;1.63;;
15858;SDS011;8029;52.202;7.308;2022-10-04T04:09:44;3.20;;;2.50;;
15858;SDS011;8029;52.202;7.308;2022-10-04T04:12:23;3.05;;;2.75;;
15858;SDS011;8029;52.202;7.308;2022-10-04T04:14:51;2.17;;;1.98;;
15858;SDS011;8029;52.202;7.308;2022-10-04T04:19:46;2.08;;;0.90;;
15858;SDS011;8029;52.202;7.308;2022-10-04T04:22:15;3.75;;;2.20;;
15858;SDS011;8029;52.202;7.308;2022-10-04T04:24:42;2.83;;;2.20;;
15858;SDS011;8029;52.202;7.308;2022-10-04T04:27:10;3.00;;;2.08;;
15858;SDS011;8029;52.202;7.308;2022-10-04T04:29:43;2.53;;;1.70;;
15858;SDS011;8029;52.202;7.308;2022-10-04T04:32:13;2.15;;;1.60;;
15858;SDS011;8029;52.202;7.308;2022-10-04T04:34:51;1.90;;;1.77;;
15858;SDS011;8029;52.202;7.308;2022-10-04T04:37:18;2.45;;;1.63;;
15858;SDS011;8029;52.202;7.308;2022-10-04T04:39:47;6.90;;;2.40;;
15858;SDS011;8029;52.202;7.308;2022-10-04T04:42:18;1.63;;;1.52;;
15858;SDS011;8029;52.202;7.308;2022-10-04T04:44:52;2.67;;;1.80;;
15858;SDS011;8029;52.202;7.308;2022-10-04T04:49:53;1.70;;;1.38;;
15858;SDS011;8029;52.202;7.308;2022-10-04T04:52:20;2.10;;;1.90;;
15858;SDS011;8029;52.202;7.308;2022-10-04T04:54:47;1.75;;;1.65;;
15858;SDS011;8029;52.202;7.308;2022-10-04T04:57:15;3.42;;;1.90;;
15858;SDS011;8029;52.202;7.308;2022-10-04T05:05:16;2.00;;;1.80;;
15858;SDS011;8029;52.202;7.308;2022-10-04T05:07:43;3.58;;;1.90;;
15858;SDS011;8029;52.202;7.308;2022-10-04T05:10:19;3.42;;;2.00;;
15858;SDS011;8029;52.202;7.308;2022-10-04T05:12:46;2.03;;;1.38;;
15858;SDS011;8029;52.202;7.308;2022-10-04T05:15:13;4.82;;;2.13;;
15858;SDS011;8029;52.202;7.308;2022-10-04T05:17:40;1.77;;;1.65;;
15858;SDS011;8029;52.202;7.308;2022-10-04T05:20:06;2.28;;;2.08;;
15858;SDS011;8029;52.202;7.308;2022-10-04T05:22:32;1.58;;;1.38;;
15858;SDS011;8029;52.202;7.308;2022-10-04T05:25:00;2.70;;;2.03;;
15858;SDS011;8029;52.202;7.308;2022-10-04T05:32:32;2.05;;;1.80;;
15858;SDS011;8029;52.202;7.308;2022-10-04T05:35:12;1.58;;;1.50;;
15858;SDS011;8029;52.202;7.308;2022-10-04T05:42:40;2.05;;;1.85;;
15858;SDS011;8029;52.202;7.308;2022-10-04T05:47:41;2.67;;;1.95;;
15858;SDS011;8029;52.202;7.308;2022-10-04T05:50:12;2.38;;;2.17;;
15858;SDS011;8029;52.202;7.308;2022-10-04T05:52:39;2.78;;;2.10;;
15858;SDS011;8029;52.202;7.308;2022-10-04T06:00:20;2.22;;;2.03;;
15858;SDS011;8029;52.202;7.308;2022-10-04T06:03:01;3.15;;;2.20;;
15858;SDS011;8029;52.202;7.308;2022-10-04T06:13:18;2.60;;;2.40;;
15858;SDS011;8029;52.202;7.308;2022-10-04T06:24:19;26.75;;;3.35;;
15858;SDS011;8029;52.202;7.308;2022-10-04T06:26:58;2.92;;;2.40;;
15858;SDS011;8029;52.202;7.308;2022-10-04T06:29:28;5.13;;;3.15;;
15858;SDS011;8029;52.202;7.308;2022-10-04T06:44:36;7.47;;;3.83;;
15858;SDS011;8029;52.202;7.308;2022-10-04T06:49:47;11.82;;;3.92;;
15858;SDS011;8029;52.202;7.308;2022-10-04T06:57:29;10.85;;;3.88;;
15858;SDS011;8029;52.202;7.308;2022-10-04T07:07:33;6.18;;;3.58;;
15858;SDS011;8029;52.202;7.308;2022-10-04T07:12:44;10.95;;;4.72;;
15858;SDS011;8029;52.202;7.308;2022-10-04T07:15:17;5.65;;;3.88;;
15858;SDS011;8029;52.202;7.308;2022-10-04T07:17:44;10.80;;;4.40;;
15858;SDS011;8029;52.202;7.308;2022-10-04T07:20:30;4.95;;;4.13;;
15858;SDS011;8029;52.202;7.308;2022-10-04T07:23:42;9.93;;;2.92;;
15858;SDS011;8029;52.202;7.308;2022-10-04T07:25:48;4.38;;;3.03;;
15858;SDS011;8029;52.202;7.308;2022-10-04T07:28:18;5.03;;;3.70;;
15858;SDS011;8029;52.202;7.308;2022-10-04T07:33:34;3.63;;;2.95;;
15858;SDS011;8029;52.202;7.308;2022-10-04T07:36:14;6.53;;;4.80;;
15858;SDS011;8029;52.202;7.308;2022-10-04T07:39:18;6.05;;;4.43;;
15858;SDS011;8029;52.202;7.308;2022-10-04T07:41:38;4.78;;;3.15;;
15858;SDS011;8029;52.202;7.308;2022-10-04T07:44:14;6.80;;;3.70;;
15858;SDS011;8029;52.202;7.308;2022-10-04T07:46:43;5.32;;;3.85;;
15858;SDS011;8029;52.202;7.308;2022-10-04T07:49:15;4.57;;;4.00;;
15858;SDS011;8029;52.202;7.308;2022-10-04T07:51:43;5.47;;;4.13;;
15858;SDS011;8029;52.202;7.308;2022-10-04T07:56:57;4.40;;;3.50;;
15858;SDS011;8029;52.202;7.308;2022-10-04T08:00:02;7.05;;;3.75;;
15858;SDS011;8029;52.202;7.308;2022-10-04T08:04:53;5.32;;;3.83;;
15858;SDS011;8029;52.202;7.308;2022-10-04T08:07:40;8.95;;;4.20;;
15858;SDS011;8029;52.202;7.308;2022-10-04T08:10:19;5.60;;;2.88;;
15858;SDS011;8029;52.202;7.308;2022-10-04T08:12:57;4.40;;;3.70;;
15858;SDS011;8029;52.202;7.308;2022-10-04T08:21:03;2.22;;;2.05;;
15858;SDS011;8029;52.202;7.308;2022-10-04T08:28:49;7.70;;;3.50;;
15858;SDS011;8029;52.202;7.308;2022-10-04T08:31:45;3.10;;;2.80;;
15858;SDS011;8029;52.202;7.308;2022-10-04T08:42:28;3.15;;;2.10;;
15858;SDS011;8029;52.202;7.308;2022-10-04T08:48:00;3.60;;;2.45;;
15858;SDS011;8029;52.202;7.308;2022-10-04T08:53:20;4.97;;;3.75;;
15858;SDS011;8029;52.202;7.308;2022-10-04T09:01:31;3.80;;;2.05;;
15858;SDS011;8029;52.202;7.308;2022-10-04T09:04:13;3.42;;;2.15;;
15858;SDS011;8029;52.202;7.308;2022-10-04T09:20:01;2.42;;;2.15;;
15858;SDS011;8029;52.202;7.308;2022-10-04T09:22:36;1.95;;;1.77;;
15858;SDS011;8029;52.202;7.308;2022-10-04T09:27:48;3.13;;;2.40;;
15858;SDS011;8029;52.202;7.308;2022-10-04T09:30:19;2.55;;;2.03;;
15858;SDS011;8029;52.202;7.308;2022-10-04T09:48:15;3.03;;;2.08;;
15858;SDS011;8029;52.202;7.308;2022-10-04T10:11:29;4.13;;;2.22;;
15858;SDS011;8029;52.202;7.308;2022-10-04T10:25:33;8.52;;;2.60;;
15858;SDS011;8029;52.202;7.308;2022-10-04T10:38:28;1.58;;;1.48;;
15858;SDS011;8029;52.202;7.308;2022-10-04T10:46:39;1.67;;;1.40;;
15858;SDS011;8029;52.202;7.308;2022-10-04T11:15:08;2.25;;;1.67;;
15858;SDS011;8029;52.202;7.308;2022-10-04T11:18:06;2.60;;;2.05;;
15858;SDS011;8029;52.202;7.308;2022-10-04T11:29:08;3.25;;;2.10;;
15858;SDS011;8029;52.202;7.308;2022-10-04T11:31:42;2.38;;;2.00;;
15858;SDS011;8029;52.202;7.308;2022-10-04T11:36:54;3.15;;;2.10;;
15858;SDS011;8029;52.202;7.308;2022-10-04T11:52:43;2.50;;;2.10;;
15858;SDS011;8029;52.202;7.308;2022-10-04T11:57:53;2.38;;;2.08;;
15858;SDS011;8029;52.202;7.308;2022-10-04T12:00:21;5.28;;;3.25;;
15858;SDS011;8029;52.202;7.308;2022-10-04T12:21:09;3.30;;;2.17;;
15858;SDS011;8029;52.202;7.308;2022-10-04T12:31:33;3.42;;;1.88;;
15858;SDS011;8029;52.202;7.308;2022-10-04T12:42:00;2.22;;;1.60;;
15858;SDS011;8029;52.202;7.308;2022-10-04T12:44:41;1.75;;;1.65;;
15858;SDS011;8029;52.202;7.308;2022-10-04T12:50:00;3.10;;;1.83;;
15858;SDS011;8029;52.202;7.308;2022-10-04T12:52:37;2.22;;;1.98;;
15858;SDS011;8029;52.202;7.308;2022-10-04T12:57:47;2.88;;;2.13;;
15858;SDS011;8029;52.202;7.308;2022-10-04T13:05:35;2.58;;;1.70;;
15858;SDS011;8029;52.202;7.308;2022-10-04T13:10:55;4.47;;;2.42;;
15858;SDS011;8029;52.202;7.308;2022-10-04T13:18:46;1.65;;;1.52;;
15858;SDS011;8029;52.202;7.308;2022-10-04T13:21:19;2.17;;;1.75;;
15858;SDS011;8029;52.202;7.308;2022-10-04T13:23:52;2.72;;;2.25;;
15858;SDS011;8029;52.202;7.308;2022-10-04T13:34:06;1.77;;;1.67;;
15858;SDS011;8029;52.202;7.308;2022-10-04T13:39:19;5.82;;;2.15;;
15858;SDS011;8029;52.202;7.308;2022-10-04T13:44:34;1.70;;;1.60;;
15858;SDS011;8029;52.202;7.308;2022-10-04T13:47:18;3.28;;;1.50;;
15858;SDS011;8029;52.202;7.308;2022-10-04T13:52:45;1.92;;;1.55;;
15858;SDS011;8029;52.202;7.308;2022-10-04T13:58:30;1.48;;;1.38;;
15858;SDS011;8029;52.202;7.308;2022-10-04T14:27:44;2.15;;;1.45;;
15858;SDS011;8029;52.202;7.308;2022-10-04T14:30:15;7.63;;;1.50;;
15858;SDS011;8029;52.202;7.308;2022-10-04T14:32:49;1.80;;;1.70;;
15858;SDS011;8029;52.202;7.308;2022-10-04T14:35:25;3.58;;;1.75;;
15858;SDS011;8029;52.202;7.308;2022-10-04T14:45:41;1.38;;;1.27;;
15858;SDS011;8029;52.202;7.308;2022-10-04T14:50:44;1.40;;;1.30;;
15858;SDS011;8029;52.202;7.308;2022-10-04T15:03:39;2.95;;;1.55;;
15858;SDS011;8029;52.202;7.308;2022-10-04T15:06:12;2.10;;;1.75;;
15858;SDS011;8029;52.202;7.308;2022-10-04T15:08:55;1.48;;;1.38;;
15858;SDS011;8029;52.202;7.308;2022-10-04T15:14:03;1.40;;;1.23;;
15858;SDS011;8029;52.202;7.308;2022-10-04T15:16:50;3.47;;;1.70;;
15858;SDS011;8029;52.202;7.308;2022-10-04T15:24:28;1.98;;;1.52;;
15858;SDS011;8029;52.202;7.308;2022-10-04T15:26:59;1.75;;;1.30;;
15858;SDS011;8029;52.202;7.308;2022-10-04T15:29:39;1.95;;;1.33;;
15858;SDS011;8029;52.202;7.308;2022-10-04T15:40:14;2.03;;;1.45;;
15858;SDS011;8029;52.202;7.308;2022-10-04T15:45:25;1.00;;;1.00;;
15858;SDS011;8029;52.202;7.308;2022-10-04T15:50:41;8.30;;;2.33;;
15858;SDS011;8029;52.202;7.308;2022-10-04T15:53:24;7.05;;;3.70;;
15858;SDS011;8029;52.202;7.308;2022-10-04T15:56:04;5.13;;;2.22;;
15858;SDS011;8029;52.202;7.308;2022-10-04T16:03:43;1.50;;;1.40;;
15858;SDS011;8029;52.202;7.308;2022-10-04T16:06:27;2.30;;;1.80;;
15858;SDS011;8029;52.202;7.308;2022-10-04T16:12:00;2.20;;;1.73;;
15858;SDS011;8029;52.202;7.308;2022-10-04T16:17:12;1.30;;;1.20;;
15858;SDS011;8029;52.202;7.308;2022-10-04T16:22:29;2.33;;;1.58;;
15858;SDS011;8029;52.202;7.308;2022-10-04T16:30:08;3.65;;;2.80;;
15858;SDS011;8029;52.202;7.308;2022-10-04T16:32:38;1.77;;;1.67;;
15858;SDS011;8029;52.202;7.308;2022-10-04T16:37:54;1.70;;;1.25;;
15858;SDS011;8029;52.202;7.308;2022-10-04T16:43:47;2.97;;;2.05;;
15858;SDS011;8029;52.202;7.308;2022-10-04T16:45:49;3.97;;;2.08;;
15858;SDS011;8029;52.202;7.308;2022-10-04T16:48:33;5.88;;;1.75;;
15858;SDS011;8029;52.202;7.308;2022-10-04T16:53:39;4.72;;;1.92;;
15858;SDS011;8029;52.202;7.308;2022-10-04T16:56:13;3.30;;;1.80;;
15858;SDS011;8029;52.202;7.308;2022-10-04T17:01:25;1.73;;;1.50;;
15858;SDS011;8029;52.202;7.308;2022-10-04T17:06:47;4.10;;;1.65;;
15858;SDS011;8029;52.202;7.308;2022-10-04T17:09:28;2.13;;;1.92;;
15858;SDS011;8029;52.202;7.308;2022-10-04T17:12:15;3.35;;;2.75;;
15858;SDS011;8029;52.202;7.308;2022-10-04T17:25:28;5.10;;;1.65;;
15858;SDS011;8029;52.202;7.308;2022-10-04T17:28:00;3.03;;;2.15;;
15858;SDS011;8029;52.202;7.308;2022-10-04T17:30:49;4.47;;;2.03;;
15858;SDS011;8029;52.202;7.308;2022-10-04T17:38:48;2.17;;;1.50;;
15858;SDS011;8029;52.202;7.308;2022-10-04T17:52:25;4.93;;;3.35;;
15858;SDS011;8029;52.202;7.308;2022-10-04T17:55:27;2.97;;;2.60;;
15858;SDS011;8029;52.202;7.308;2022-10-04T17:58:08;2.58;;;1.95;;
15858;SDS011;8029;52.202;7.308;2022-10-04T18:03:40;2.45;;;1.40;;
15858;SDS011;8029;52.202;7.308;2022-10-04T18:06:28;2.20;;;1.75;;
15858;SDS011;8029;52.202;7.308;2022-10-04T18:08:57;4.80;;;1.95;;
15858;SDS011;8029;52.202;7.308;2022-10-04T18:14:03;1.65;;;1.55;;
15858;SDS011;8029;52.202;7.308;2022-10-04T18:21:51;3.63;;;2.83;;
15858;SDS011;8029;52.202;7.308;2022-10-04T18:24:26;6.70;;;3.30;;
15858;SDS011;8029;52.202;7.308;2022-10-04T18:27:16;1.95;;;1.77;;
15858;SDS011;8029;52.202;7.308;2022-10-04T18:29:42;2.97;;;1.65;;
15858;SDS011;8029;52.202;7.308;2022-10-04T18:32:42;2.25;;;2.05;;
15858;SDS011;8029;52.202;7.308;2022-10-04T18:35:16;6.25;;;1.95;;
15858;SDS011;8029;52.202;7.308;2022-10-04T18:37:44;2.72;;;1.92;;
15858;SDS011;8029;52.202;7.308;2022-10-04T18:42:40;3.17;;;2.00;;
15858;SDS011;8029;52.202;7.308;2022-10-04T18:45:23;8.65;;;5.78;;
15858;SDS011;8029;52.202;7.308;2022-10-04T18:47:50;6.38;;;3.75;;
15858;SDS011;8029;52.202;7.308;2022-10-04T18:55:24;3.30;;;2.20;;
15858;SDS011;8029;52.202;7.308;2022-10-04T19:00:52;2.58;;;2.28;;
15858;SDS011;8029;52.202;7.308;2022-10-04T19:06:36;3.70;;;2.00;;
15858;SDS011;8029;52.202;7.308;2022-10-04T19:11:50;3.13;;;2.20;;
15858;SDS011;8029;52.202;7.308;2022-10-04T19:16:51;2.63;;;2.00;;
15858;SDS011;8029;52.202;7.308;2022-10-04T19:27:29;5.95;;;2.20;;
15858;SDS011;8029;52.202;7.308;2022-10-04T19:38:19;2.53;;;2.10;;
15858;SDS011;8029;52.202;7.308;2022-10-04T19:46:30;4.22;;;2.40;;
15858;SDS011;8029;52.202;7.308;2022-10-04T19:48:52;3.38;;;2.83;;
15858;SDS011;8029;52.202;7.308;2022-10-04T19:51:33;2.60;;;2.38;;
15858;SDS011;8029;52.202;7.308;2022-10-04T19:54:03;2.85;;;2.55;;
15858;SDS011;8029;52.202;7.308;2022-10-04T19:56:32;2.78;;;2.42;;
15858;SDS011;8029;52.202;7.308;2022-10-04T20:01:27;4.10;;;2.40;;
15858;SDS011;8029;52.202;7.308;2022-10-04T20:03:56;2.97;;;2.78;;
15858;SDS011;8029;52.202;7.308;2022-10-04T20:06:47;4.65;;;2.35;;
15858;SDS011;8029;52.202;7.308;2022-10-04T20:09:22;4.72;;;2.50;;
15858;SDS011;8029;52.202;7.308;2022-10-04T20:11:49;3.47;;;2.50;;
15858;SDS011;8029;52.202;7.308;2022-10-04T20:21:54;7.35;;;5.72;;
15858;SDS011;8029;52.202;7.308;2022-10-04T20:27:57;4.82;;;2.15;;
15858;SDS011;8029;52.202;7.308;2022-10-04T20:34:55;2.75;;;2.55;;
15858;SDS011;8029;52.202;7.308;2022-10-04T20:38:12;3.15;;;2.70;;
15858;SDS011;8029;52.202;7.308;2022-10-04T20:40:07;3.20;;;2.70;;
15858;SDS011;8029;52.202;7.308;2022-10-04T20:47:42;3.70;;;2.40;;
15858;SDS011;8029;52.202;7.308;2022-10-04T20:50:12;3.70;;;2.40;;
15858;SDS011;8029;52.202;7.308;2022-10-04T20:55:16;2.70;;;2.50;;
15858;SDS011;8029;52.202;7.308;2022-10-04T20:57:43;3.30;;;2.38;;
15858;SDS011;8029;52.202;7.308;2022-10-04T21:00:17;2.55;;;1.80;;
15858;SDS011;8029;52.202;7.308;2022-10-04T21:02:44;4.05;;;2.22;;
15858;SDS011;8029;52.202;7.308;2022-10-04T21:05:11;3.60;;;1.98;;
15858;SDS011;8029;52.202;7.308;2022-10-04T21:07:39;3.53;;;2.25;;
15858;SDS011;8029;52.202;7.308;2022-10-04T21:10:08;3.17;;;2.25;;
15858;SDS011;8029;52.202;7.308;2022-10-04T21:12:39;2.47;;;2.20;;
15858;SDS011;8029;52.202;7.308;2022-10-04T21:15:11;2.08;;;1.75;;
15858;SDS011;8029;52.202;7.308;2022-10-04T21:17:56;3.55;;;2.85;;
15858;SDS011;8029;52.202;7.308;2022-10-04T21:23:17;3.60;;;2.70;;
15858;SDS011;8029;52.202;7.308;2022-10-04T21:25:47;4.38;;;2.92;;
15858;SDS011;8029;52.202;7.308;2022-10-04T21:28:31;3.95;;;2.88;;
15858;SDS011;8029;52.202;7.308;2022-10-04T21:31:00;2.55;;;2.28;;
15858;SDS011;8029;52.202;7.308;2022-10-04T21:33:26;2.53;;;2.33;;
15858;SDS011;8029;52.202;7.308;2022-10-04T21:35:52;3.55;;;3.25;;
15858;SDS011;8029;52.202;7.308;2022-10-04T21:38:18;3.60;;;2.92;;
15858;SDS011;8029;52.202;7.308;2022-10-04T21:40:45;2.80;;;2.05;;
15858;SDS011;8029;52.202;7.308;2022-10-04T21:43:11;2.50;;;2.30;;
15858;SDS011;8029;52.202;7.308;2022-10-04T21:45:37;2.70;;;2.20;;
15858;SDS011;8029;52.202;7.308;2022-10-04T21:48:03;4.80;;;2.50;;
15858;SDS011;8029;52.202;7.308;2022-10-04T21:50:29;2.60;;;2.40;;
15858;SDS011;8029;52.202;7.308;2022-10-04T21:52:55;4.22;;;3.17;;
15858;SDS011;8029;52.202;7.308;2022-10-04T21:55:23;2.80;;;2.28;;
15858;SDS011;8029;52.202;7.308;2022-10-04T21:57:49;2.90;;;2.60;;
15858;SDS011;8029;52.202;7.308;2022-10-04T22:00:15;4.25;;;3.28;;
15858;SDS011;8029;52.202;7.308;2022-10-04T22:02:41;2.90;;;2.70;;
15858;SDS011;8029;52.202;7.308;2022-10-04T22:05:07;4.25;;;2.35;;
15858;SDS011;8029;52.202;7.308;2022-10-04T22:07:33;2.92;;;2.58;;
15858;SDS011;8029;52.202;7.308;2022-10-04T22:09:59;11.88;;;2.78;;
15858;SDS011;8029;52.202;7.308;2022-10-04T22:12:25;2.58;;;2.38;;
15858;SDS011;8029;52.202;7.308;2022-10-04T22:14:51;4.43;;;3.05;;
15858;SDS011;8029;52.202;7.308;2022-10-04T22:17:17;3.53;;;2.75;;
15858;SDS011;8029;52.202;7.308;2022-10-04T22:19:43;2.75;;;2.15;;
15858;SDS011;8029;52.202;7.308;2022-10-04T22:22:13;3.15;;;2.85;;
15858;SDS011;8029;52.202;7.308;2022-10-04T22:24:39;2.78;;;2.58;;
15858;SDS011;8029;52.202;7.308;2022-10-04T22:27:12;2.55;;;2.17;;
15858;SDS011;8029;52.202;7.308;2022-10-04T22:29:39;3.55;;;2.22;;
15858;SDS011;8029;52.202;7.308;2022-10-04T22:32:10;3.28;;;2.50;;
15858;SDS011;8029;52.202;7.308;2022-10-04T22:34:36;2.95;;;2.53;;
15858;SDS011;8029;52.202;7.308;2022-10-04T22:37:02;4.00;;;2.90;;
15858;SDS011;8029;52.202;7.308;2022-10-04T22:39:30;3.40;;;3.10;;
15858;SDS011;8029;52.202;7.308;2022-10-04T22:41:57;3.53;;;2.45;;
15858;SDS011;8029;52.202;7.308;2022-10-04T22:44:25;2.70;;;2.42;;
15858;SDS011;8029;52.202;7.308;2022-10-04T22:46:53;6.20;;;3.08;;
15858;SDS011;8029;52.202;7.308;2022-10-04T22:49:23;10.88;;;3.35;;
15858;SDS011;8029;52.202;7.308;2022-10-04T22:51:50;2.92;;;2.72;;
15858;SDS011;8029;52.202;7.308;2022-10-04T22:54:21;4.65;;;2.63;;
15858;SDS011;8029;52.202;7.308;2022-10-04T22:56:47;4.82;;;2.67;;
15858;SDS011;8029;52.202;7.308;2022-10-04T22:59:14;11.27;;;3.63;;
15858;SDS011;8029;52.202;7.308;2022-10-04T23:01:41;4.13;;;2.38;;
15858;SDS011;8029;52.202;7.308;2022-10-04T23:04:14;15.85;;;2.90;;
15858;SDS011;8029;52.202;7.308;2022-10-04T23:06:41;3.35;;;2.63;;
15858;SDS011;8029;52.202;7.308;2022-10-04T23:09:08;5.10;;;3.03;;
15858;SDS011;8029;52.202;7.308;2022-10-04T23:11:34;3.55;;;2.83;;
15858;SDS011;8029;52.202;7.308;2022-10-04T23:14:01;2.30;;;2.10;;
15858;SDS011;8029;52.202;7.308;2022-10-04T23:16:27;3.92;;;3.05;;
15858;SDS011;8029;52.202;7.308;2022-10-04T23:18:58;2.35;;;2.15;;
15858;SDS011;8029;52.202;7.308;2022-10-04T23:21:25;6.53;;;2.80;;
15858;SDS011;8029;52.202;7.308;2022-10-04T23:23:55;2.63;;;2.42;;
15858;SDS011;8029;52.202;7.308;2022-10-04T23:26:26;3.80;;;2.80;;
15858;SDS011;8029;52.202;7.308;2022-10-04T23:28:55;3.92;;;3.08;;
15858;SDS011;8029;52.202;7.308;2022-10-04T23:31:24;4.60;;;3.05;;
15858;SDS011;8029;52.202;7.308;2022-10-04T23:33:53;2.80;;;2.13;;
15858;SDS011;8029;52.202;7.308;2022-10-04T23:36:20;2.83;;;2.63;;
15858;SDS011;8029;52.202;7.308;2022-10-04T23:38:51;8.02;;;3.15;;
15858;SDS011;8029;52.202;7.308;2022-10-04T23:41:19;3.00;;;2.20;;
15858;SDS011;8029;52.202;7.308;2022-10-04T23:43:45;3.20;;;2.90;;
15858;SDS011;8029;52.202;7.308;2022-10-04T23:46:15;3.70;;;2.83;;
15858;SDS011;8029;52.202;7.308;2022-10-04T23:48:42;3.88;;;3.30;;
15858;SDS011;8029;52.202;7.308;2022-10-04T23:51:09;4.20;;;2.75;;
15858;SDS011;8029;52.202;7.308;2022-10-04T23:53:37;3.83;;;2.40;;
15858;SDS011;8029;52.202;7.308;2022-10-04T23:56:05;3.85;;;3.17;;
15858;SDS011;8029;52.202;7.308;2022-10-04T23:58:35;3.63;;;2.97;;
